sensor_id;sensor_type;location;lat;lon;timestamp;P1;durP1;ratioP1;P2;durP2;ratioP2
13423;SDS011;6783;57.758;14.922;2022-10-30T12:01:34;6.00;;;1.42;;
13423;SDS011;6783;57.758;14.922;2022-10-30T12:04:12;7.10;;;1.67;;
13423;SDS011;6783;57.758;14.922;2022-10-30T12:06:41;8.45;;;2.05;;
13423;SDS011;6783;57.758;14.922;2022-10-30T12:09:09;7.93;;;2.10;;
13423;SDS011;6783;57.758;14.922;2022-10-30T12:11:38;5.80;;;2.03;;
13423;SDS011;6783;57.758;14.922;2022-10-30T12:14:12;7.18;;;1.90;;
13423;SDS011;6783;57.758;14.922;2022-10-30T12:16:45;9.45;;;2.13;;
13423;SDS011;6783;57.758;14.922;2022-10-30T12:19:13;3.60;;;1.50;;
13423;SDS011;6783;57.758;14.922;2022-10-30T12:21:42;6.47;;;1.83;;
13423;SDS011;6783;57.758;14.922;2022-10-30T12:24:14;5.47;;;1.70;;
13423;SDS011;6783;57.758;14.922;2022-10-30T12:26:45;8.82;;;1.60;;
13423;SDS011;6783;57.758;14.922;2022-10-30T12:29:14;9.05;;;2.00;;
13423;SDS011;6783;57.758;14.922;2022-10-30T12:31:45;7.38;;;1.60;;
13423;SDS011;6783;57.758;14.922;2022-10-30T12:34:22;5.47;;;1.48;;
13423;SDS011;6783;57.758;14.922;2022-10-30T12:36:55;5.68;;;1.80;;
13423;SDS011;6783;57.758;14.922;2022-10-30T12:39:27;7.57;;;1.77;;
13423;SDS011;6783;57.758;14.922;2022-10-30T12:41:58;9.10;;;1.60;;
13423;SDS011;6783;57.758;14.922;2022-10-30T12:44:28;5.45;;;1.60;;
13423;SDS011;6783;57.758;14.922;2022-10-30T12:47:00;7.60;;;2.25;;
13423;SDS011;6783;57.758;14.922;2022-10-30T12:49:32;4.63;;;1.52;;
13423;SDS011;6783;57.758;14.922;2022-10-30T12:52:06;5.53;;;2.17;;
13423;SDS011;6783;57.758;14.922;2022-10-30T12:54:38;5.53;;;1.30;;
13423;SDS011;6783;57.758;14.922;2022-10-30T12:57:12;6.13;;;1.90;;
13423;SDS011;6783;57.758;14.922;2022-10-30T12:59:44;6.20;;;1.70;;
13423;SDS011;6783;57.758;14.922;2022-10-30T13:02:22;6.88;;;1.50;;
13423;SDS011;6783;57.758;14.922;2022-10-30T13:04:56;5.53;;;1.58;;
13423;SDS011;6783;57.758;14.922;2022-10-30T13:07:28;3.95;;;1.50;;
13423;SDS011;6783;57.758;14.922;2022-10-30T13:10:02;5.25;;;1.40;;
13423;SDS011;6783;57.758;14.922;2022-10-30T13:12:43;6.13;;;1.40;;
13423;SDS011;6783;57.758;14.922;2022-10-30T13:15:17;7.10;;;1.63;;
13423;SDS011;6783;57.758;14.922;2022-10-30T13:17:53;6.10;;;1.90;;
13423;SDS011;6783;57.758;14.922;2022-10-30T13:20:27;5.00;;;1.80;;
13423;SDS011;6783;57.758;14.922;2022-10-30T13:22:59;4.38;;;1.50;;
13423;SDS011;6783;57.758;14.922;2022-10-30T13:25:33;5.72;;;1.70;;
13423;SDS011;6783;57.758;14.922;2022-10-30T13:28:05;8.25;;;1.67;;
13423;SDS011;6783;57.758;14.922;2022-10-30T13:30:39;6.40;;;1.42;;
13423;SDS011;6783;57.758;14.922;2022-10-30T13:33:11;6.10;;;1.60;;
13423;SDS011;6783;57.758;14.922;2022-10-30T13:35:44;4.88;;;1.55;;
13423;SDS011;6783;57.758;14.922;2022-10-30T13:38:19;6.05;;;1.73;;
13423;SDS011;6783;57.758;14.922;2022-10-30T13:40:59;5.30;;;1.55;;
13423;SDS011;6783;57.758;14.922;2022-10-30T13:43:34;3.97;;;1.65;;
13423;SDS011;6783;57.758;14.922;2022-10-30T13:46:10;5.68;;;1.40;;
13423;SDS011;6783;57.758;14.922;2022-10-30T13:48:52;7.15;;;1.65;;
13423;SDS011;6783;57.758;14.922;2022-10-30T13:51:33;5.50;;;1.33;;
13423;SDS011;6783;57.758;14.922;2022-10-30T13:54:11;4.82;;;1.65;;
13423;SDS011;6783;57.758;14.922;2022-10-30T13:56:42;8.35;;;1.70;;
13423;SDS011;6783;57.758;14.922;2022-10-30T13:59:17;6.47;;;1.58;;
13423;SDS011;6783;57.758;14.922;2022-10-30T14:02:06;6.03;;;1.50;;
13423;SDS011;6783;57.758;14.922;2022-10-30T14:04:42;6.45;;;1.83;;
13423;SDS011;6783;57.758;14.922;2022-10-30T14:07:19;10.02;;;2.88;;
13423;SDS011;6783;57.758;14.922;2022-10-30T14:09:53;8.57;;;1.67;;
13423;SDS011;6783;57.758;14.922;2022-10-30T14:12:41;6.45;;;1.50;;
13423;SDS011;6783;57.758;14.922;2022-10-30T14:15:14;6.22;;;2.08;;
13423;SDS011;6783;57.758;14.922;2022-10-30T14:20:46;9.57;;;1.95;;
13423;SDS011;6783;57.758;14.922;2022-10-30T14:23:18;4.65;;;1.33;;
13423;SDS011;6783;57.758;14.922;2022-10-30T14:28:38;6.70;;;2.10;;
13423;SDS011;6783;57.758;14.922;2022-10-30T14:31:07;8.32;;;1.80;;
13423;SDS011;6783;57.758;14.922;2022-10-30T14:33:39;6.38;;;1.52;;
13423;SDS011;6783;57.758;14.922;2022-10-30T14:36:16;5.40;;;1.70;;
13423;SDS011;6783;57.758;14.922;2022-10-30T14:38:52;6.43;;;1.52;;
13423;SDS011;6783;57.758;14.922;2022-10-30T14:41:23;6.47;;;1.75;;
13423;SDS011;6783;57.758;14.922;2022-10-30T14:44:12;6.57;;;1.75;;
13423;SDS011;6783;57.758;14.922;2022-10-30T14:53:13;7.47;;;1.85;;
13423;SDS011;6783;57.758;14.922;2022-10-30T14:56:01;4.28;;;1.40;;
13423;SDS011;6783;57.758;14.922;2022-10-30T14:58:37;4.15;;;1.30;;
13423;SDS011;6783;57.758;14.922;2022-10-30T15:01:22;6.35;;;1.40;;
13423;SDS011;6783;57.758;14.922;2022-10-30T15:03:59;5.15;;;1.80;;
13423;SDS011;6783;57.758;14.922;2022-10-30T15:06:38;5.63;;;2.38;;
13423;SDS011;6783;57.758;14.922;2022-10-30T15:09:21;7.50;;;1.88;;
13423;SDS011;6783;57.758;14.922;2022-10-30T15:12:05;4.95;;;1.33;;
13423;SDS011;6783;57.758;14.922;2022-10-30T15:14:51;9.20;;;1.70;;
13423;SDS011;6783;57.758;14.922;2022-10-30T15:17:24;5.50;;;1.35;;
13423;SDS011;6783;57.758;14.922;2022-10-30T15:19:57;8.05;;;1.85;;
13423;SDS011;6783;57.758;14.922;2022-10-30T15:22:26;4.85;;;1.63;;
13423;SDS011;6783;57.758;14.922;2022-10-30T15:24:55;2.95;;;1.60;;
13423;SDS011;6783;57.758;14.922;2022-10-30T15:27:24;4.25;;;1.23;;
13423;SDS011;6783;57.758;14.922;2022-10-30T15:29:52;4.95;;;1.20;;
13423;SDS011;6783;57.758;14.922;2022-10-30T15:32:22;7.72;;;1.23;;
13423;SDS011;6783;57.758;14.922;2022-10-30T15:34:53;3.80;;;1.23;;
13423;SDS011;6783;57.758;14.922;2022-10-30T15:37:24;7.32;;;1.40;;
13423;SDS011;6783;57.758;14.922;2022-10-30T15:42:36;4.68;;;1.17;;
13423;SDS011;6783;57.758;14.922;2022-10-30T15:45:04;5.00;;;1.40;;
13423;SDS011;6783;57.758;14.922;2022-10-30T15:47:34;6.93;;;1.60;;
13423;SDS011;6783;57.758;14.922;2022-10-30T15:50:04;8.48;;;1.92;;
13423;SDS011;6783;57.758;14.922;2022-10-30T15:52:32;6.97;;;1.58;;
13423;SDS011;6783;57.758;14.922;2022-10-30T15:55:01;7.18;;;1.42;;
13423;SDS011;6783;57.758;14.922;2022-10-30T15:57:32;7.82;;;1.80;;
13423;SDS011;6783;57.758;14.922;2022-10-30T16:00:02;3.95;;;1.20;;
13423;SDS011;6783;57.758;14.922;2022-10-30T16:02:32;5.68;;;1.50;;
13423;SDS011;6783;57.758;14.922;2022-10-30T16:05:00;3.38;;;1.13;;
13423;SDS011;6783;57.758;14.922;2022-10-30T16:07:43;6.93;;;1.17;;
13423;SDS011;6783;57.758;14.922;2022-10-30T16:10:13;4.70;;;1.00;;
13423;SDS011;6783;57.758;14.922;2022-10-30T16:12:43;4.72;;;1.30;;
13423;SDS011;6783;57.758;14.922;2022-10-30T16:15:16;7.22;;;1.42;;
13423;SDS011;6783;57.758;14.922;2022-10-30T16:17:56;9.10;;;1.23;;
13423;SDS011;6783;57.758;14.922;2022-10-30T16:20:32;7.15;;;2.08;;
13423;SDS011;6783;57.758;14.922;2022-10-30T16:23:00;4.00;;;1.27;;
13423;SDS011;6783;57.758;14.922;2022-10-30T16:25:28;7.07;;;1.58;;
13423;SDS011;6783;57.758;14.922;2022-10-30T16:27:59;4.45;;;1.50;;
13423;SDS011;6783;57.758;14.922;2022-10-30T16:30:26;5.22;;;1.20;;
13423;SDS011;6783;57.758;14.922;2022-10-30T16:32:56;5.00;;;1.58;;
13423;SDS011;6783;57.758;14.922;2022-10-30T16:35:24;2.70;;;1.38;;
13423;SDS011;6783;57.758;14.922;2022-10-30T16:37:52;7.82;;;1.30;;
13423;SDS011;6783;57.758;14.922;2022-10-30T16:40:21;2.10;;;1.10;;
13423;SDS011;6783;57.758;14.922;2022-10-30T16:42:54;4.38;;;1.20;;
13423;SDS011;6783;57.758;14.922;2022-10-30T16:48:18;7.03;;;1.50;;
13423;SDS011;6783;57.758;14.922;2022-10-30T16:50:53;3.47;;;1.20;;
13423;SDS011;6783;57.758;14.922;2022-10-30T16:53:25;4.45;;;1.38;;
13423;SDS011;6783;57.758;14.922;2022-10-30T16:55:55;5.50;;;1.17;;
13423;SDS011;6783;57.758;14.922;2022-10-30T16:58:23;6.53;;;1.60;;
13423;SDS011;6783;57.758;14.922;2022-10-30T17:00:54;4.80;;;1.30;;
13423;SDS011;6783;57.758;14.922;2022-10-30T17:03:26;1.98;;;1.10;;
13423;SDS011;6783;57.758;14.922;2022-10-30T17:05:58;2.55;;;0.95;;
13423;SDS011;6783;57.758;14.922;2022-10-30T17:11:15;3.63;;;1.30;;
13423;SDS011;6783;57.758;14.922;2022-10-30T17:13:57;5.78;;;1.20;;
13423;SDS011;6783;57.758;14.922;2022-10-30T17:16:29;2.33;;;1.10;;
13423;SDS011;6783;57.758;14.922;2022-10-30T17:19:00;5.72;;;1.30;;
13423;SDS011;6783;57.758;14.922;2022-10-30T17:22:06;7.30;;;1.20;;
13423;SDS011;6783;57.758;14.922;2022-10-30T17:24:38;2.75;;;1.00;;
13423;SDS011;6783;57.758;14.922;2022-10-30T17:27:05;4.18;;;1.58;;
13423;SDS011;6783;57.758;14.922;2022-10-30T17:29:50;4.80;;;1.40;;
13423;SDS011;6783;57.758;14.922;2022-10-30T17:32:19;1.92;;;1.25;;
13423;SDS011;6783;57.758;14.922;2022-10-30T17:34:47;4.68;;;1.40;;
13423;SDS011;6783;57.758;14.922;2022-10-30T17:37:20;5.47;;;1.42;;
13423;SDS011;6783;57.758;14.922;2022-10-30T17:39:47;4.78;;;1.35;;
13423;SDS011;6783;57.758;14.922;2022-10-30T17:42:14;6.97;;;2.50;;
13423;SDS011;6783;57.758;14.922;2022-10-30T17:44:42;3.35;;;1.60;;
13423;SDS011;6783;57.758;14.922;2022-10-30T17:47:13;3.28;;;1.40;;
13423;SDS011;6783;57.758;14.922;2022-10-30T17:49:42;3.78;;;1.30;;
13423;SDS011;6783;57.758;14.922;2022-10-30T17:52:10;2.92;;;1.05;;
13423;SDS011;6783;57.758;14.922;2022-10-30T17:54:39;4.53;;;1.20;;
13423;SDS011;6783;57.758;14.922;2022-10-30T17:57:08;1.83;;;1.00;;
13423;SDS011;6783;57.758;14.922;2022-10-30T17:59:36;2.22;;;1.02;;
13423;SDS011;6783;57.758;14.922;2022-10-30T18:02:08;4.78;;;1.20;;
13423;SDS011;6783;57.758;14.922;2022-10-30T18:04:38;4.93;;;1.30;;
13423;SDS011;6783;57.758;14.922;2022-10-30T18:07:08;2.83;;;1.13;;
13423;SDS011;6783;57.758;14.922;2022-10-30T18:09:36;4.30;;;1.20;;
13423;SDS011;6783;57.758;14.922;2022-10-30T18:12:09;3.08;;;1.20;;
13423;SDS011;6783;57.758;14.922;2022-10-30T18:14:38;6.18;;;1.10;;
13423;SDS011;6783;57.758;14.922;2022-10-30T18:17:07;2.70;;;1.38;;
13423;SDS011;6783;57.758;14.922;2022-10-30T18:19:35;3.38;;;1.02;;
13423;SDS011;6783;57.758;14.922;2022-10-30T18:22:02;4.32;;;1.52;;
13423;SDS011;6783;57.758;14.922;2022-10-30T18:24:31;3.45;;;1.25;;
13423;SDS011;6783;57.758;14.922;2022-10-30T18:26:58;5.78;;;1.10;;
13423;SDS011;6783;57.758;14.922;2022-10-30T18:29:25;5.43;;;1.38;;
13423;SDS011;6783;57.758;14.922;2022-10-30T18:31:53;3.10;;;1.08;;
13423;SDS011;6783;57.758;14.922;2022-10-30T18:34:20;3.38;;;1.02;;
13423;SDS011;6783;57.758;14.922;2022-10-30T18:36:47;7.05;;;1.50;;
13423;SDS011;6783;57.758;14.922;2022-10-30T18:39:15;4.55;;;1.67;;
13423;SDS011;6783;57.758;14.922;2022-10-30T18:41:44;3.72;;;1.23;;
13423;SDS011;6783;57.758;14.922;2022-10-30T18:44:13;6.85;;;1.30;;
13423;SDS011;6783;57.758;14.922;2022-10-30T18:46:41;2.55;;;1.20;;
13423;SDS011;6783;57.758;14.922;2022-10-30T18:49:10;5.78;;;1.27;;
13423;SDS011;6783;57.758;14.922;2022-10-30T18:51:37;3.58;;;1.15;;
13423;SDS011;6783;57.758;14.922;2022-10-30T18:54:06;3.05;;;1.20;;
13423;SDS011;6783;57.758;14.922;2022-10-30T18:56:38;8.73;;;1.48;;
13423;SDS011;6783;57.758;14.922;2022-10-30T18:59:07;1.98;;;1.10;;
13423;SDS011;6783;57.758;14.922;2022-10-30T19:01:34;5.50;;;1.38;;
13423;SDS011;6783;57.758;14.922;2022-10-30T19:04:02;3.67;;;1.55;;
13423;SDS011;6783;57.758;14.922;2022-10-30T19:06:31;9.13;;;1.45;;
13423;SDS011;6783;57.758;14.922;2022-10-30T19:08:58;2.60;;;1.50;;
13423;SDS011;6783;57.758;14.922;2022-10-30T19:11:25;4.32;;;1.27;;
13423;SDS011;6783;57.758;14.922;2022-10-30T19:13:53;5.03;;;1.52;;
13423;SDS011;6783;57.758;14.922;2022-10-30T19:16:21;2.70;;;1.33;;
13423;SDS011;6783;57.758;14.922;2022-10-30T19:18:49;7.28;;;1.63;;
13423;SDS011;6783;57.758;14.922;2022-10-30T19:21:17;4.97;;;1.10;;
13423;SDS011;6783;57.758;14.922;2022-10-30T19:23:46;4.53;;;1.73;;
13423;SDS011;6783;57.758;14.922;2022-10-30T19:26:13;5.18;;;1.30;;
13423;SDS011;6783;57.758;14.922;2022-10-30T19:28:42;4.93;;;1.60;;
13423;SDS011;6783;57.758;14.922;2022-10-30T19:31:10;5.55;;;1.77;;
13423;SDS011;6783;57.758;14.922;2022-10-30T19:33:41;5.50;;;1.50;;
13423;SDS011;6783;57.758;14.922;2022-10-30T19:36:23;3.95;;;1.45;;
13423;SDS011;6783;57.758;14.922;2022-10-30T19:38:52;4.18;;;1.33;;
13423;SDS011;6783;57.758;14.922;2022-10-30T19:41:20;4.70;;;1.85;;
13423;SDS011;6783;57.758;14.922;2022-10-30T19:43:48;7.82;;;1.95;;
13423;SDS011;6783;57.758;14.922;2022-10-30T19:46:15;5.22;;;1.50;;
13423;SDS011;6783;57.758;14.922;2022-10-30T19:48:44;5.43;;;2.30;;
13423;SDS011;6783;57.758;14.922;2022-10-30T19:51:11;6.45;;;1.95;;
13423;SDS011;6783;57.758;14.922;2022-10-30T19:53:39;6.78;;;1.88;;
13423;SDS011;6783;57.758;14.922;2022-10-30T19:56:08;7.15;;;1.50;;
13423;SDS011;6783;57.758;14.922;2022-10-30T19:58:36;8.88;;;1.60;;
13423;SDS011;6783;57.758;14.922;2022-10-30T20:01:03;7.90;;;1.50;;
13423;SDS011;6783;57.758;14.922;2022-10-30T20:03:30;6.95;;;1.60;;
13423;SDS011;6783;57.758;14.922;2022-10-30T20:05:59;6.72;;;1.70;;
13423;SDS011;6783;57.758;14.922;2022-10-30T20:08:26;4.85;;;1.60;;
13423;SDS011;6783;57.758;14.922;2022-10-30T20:10:54;3.70;;;1.30;;
13423;SDS011;6783;57.758;14.922;2022-10-30T20:13:23;6.65;;;1.80;;
13423;SDS011;6783;57.758;14.922;2022-10-30T20:15:52;4.60;;;1.92;;
13423;SDS011;6783;57.758;14.922;2022-10-30T20:18:20;8.20;;;1.80;;
13423;SDS011;6783;57.758;14.922;2022-10-30T20:20:49;5.50;;;1.55;;
13423;SDS011;6783;57.758;14.922;2022-10-30T20:23:19;4.95;;;2.10;;
13423;SDS011;6783;57.758;14.922;2022-10-30T20:25:48;4.60;;;2.10;;
13423;SDS011;6783;57.758;14.922;2022-10-30T20:28:17;5.22;;;2.03;;
13423;SDS011;6783;57.758;14.922;2022-10-30T20:30:47;3.55;;;1.80;;
13423;SDS011;6783;57.758;14.922;2022-10-30T20:33:15;7.20;;;2.13;;
13423;SDS011;6783;57.758;14.922;2022-10-30T20:35:44;7.38;;;2.05;;
13423;SDS011;6783;57.758;14.922;2022-10-30T20:38:14;5.80;;;1.83;;
13423;SDS011;6783;57.758;14.922;2022-10-30T20:40:44;6.22;;;2.25;;
13423;SDS011;6783;57.758;14.922;2022-10-30T20:43:14;7.75;;;2.00;;
13423;SDS011;6783;57.758;14.922;2022-10-30T20:45:42;6.43;;;2.07;;
13423;SDS011;6783;57.758;14.922;2022-10-30T20:48:10;9.25;;;2.47;;
13423;SDS011;6783;57.758;14.922;2022-10-30T20:50:37;11.07;;;2.47;;
13423;SDS011;6783;57.758;14.922;2022-10-30T20:53:05;6.28;;;2.60;;
13423;SDS011;6783;57.758;14.922;2022-10-30T20:55:34;10.38;;;3.25;;
13423;SDS011;6783;57.758;14.922;2022-10-30T20:58:03;7.80;;;2.65;;
13423;SDS011;6783;57.758;14.922;2022-10-30T21:00:31;11.73;;;3.55;;
13423;SDS011;6783;57.758;14.922;2022-10-30T21:03:00;11.05;;;3.38;;
13423;SDS011;6783;57.758;14.922;2022-10-30T21:05:28;11.95;;;3.72;;
13423;SDS011;6783;57.758;14.922;2022-10-30T21:07:57;10.52;;;4.00;;
13423;SDS011;6783;57.758;14.922;2022-10-30T21:10:25;8.55;;;3.22;;
13423;SDS011;6783;57.758;14.922;2022-10-30T21:12:53;12.57;;;3.92;;
13423;SDS011;6783;57.758;14.922;2022-10-30T21:15:21;7.85;;;3.10;;
